Gaithersburg, MD (20877)

2:41 AM EDT on March 23, 2017 (GMT -0400)
Saybrooke | | Change Station

Elev 489 ft 39.15 °N, 77.18 °W | Updated 6 seconds ago

Clear
Clear
27.5 °F
Feels Like 28 °F
N
1.0
Wind Variable Wind from North

Today
High -- | Low -- °F
--% Chance of Precip.
Yesterday
High -- | Low -- °F
Precip. -- in
Pressure 30.54 in
Visibility 10.0 miles
Clouds Clear
Windchill 28 °F
Dew Point 7 °F
Humidity 41%
Rainfall Not available.
Snow Depth Not available.
7:07 AM 7:23 PM
Waning Crescent, 26% visible
METAR KGAI 230635Z AUTO 00000KT 10SM CLR M04/M15 A3054 RMK AO1
Pressure 30.54 in
Visibility 10.0 miles
Clouds Clear
Windchill 28 °F
Dew Point 7 °F
Humidity 41%
Rainfall Not available.
Snow Depth Not available.
7:07 AM 7:23 PM
Waning Crescent, 26% visible
METAR KGAI 230635Z AUTO 00000KT 10SM CLR M04/M15 A3054 RMK AO1

Get Severe Weather Alerts

Thanks for signing up!

Be on the lookout for a verification email in your inbox.

You'll start receiving the daily forecast at 8 AM.

×

10-Day Weather Forecast

Almanac

Astronomy

Mar. 23, 2017 Rise Set
Actual Time
Civil Twilight
Nautical Twilight
Astronomical Twilight
Moon
Length of Visible Light
Length of Day
Tomorrow will be .
, % of the Moon is Illuminated

Today's Extremes

State Highs State Lows

Community

WunderPhotos

Upload Photos

1,962,540 photos uploaded!

WunderBlog® & News

Nearby

Air Quality

  Air Quality AQ Index Pollutant
Not available.

Snow Depth

Station Depth Elevation

Earthquake Activity

City Distance Mag. Time & Date
Minimum magnitude displayed is 2.5.

Earthquake Activity

City Distance Mag. Time & Date
Minimum magnitude displayed is 2.5.

Coastal Water Temperatures

Place Temperature

Stations

Nearby Weather Stations

Station Location Temp. Windchill Dew Point Humidity Wind Precip. Elev Updated Type
                   

Watches & Warnings

There are currently no watches in effect.